sensor_id;sensor_type;location;lat;lon;timestamp;temperature;humidity
18024;DHT22;9137;50.960;3.118;2022-07-06T00:01:23;14.70;96.10
18024;DHT22;9137;50.960;3.118;2022-07-06T00:03:51;14.60;96.10
18024;DHT22;9137;50.960;3.118;2022-07-06T00:06:17;14.60;96.10
18024;DHT22;9137;50.960;3.118;2022-07-06T00:08:44;14.60;96.10
18024;DHT22;9137;50.960;3.118;2022-07-06T00:11:11;14.60;96.30
18024;DHT22;9137;50.960;3.118;2022-07-06T00:13:40;14.60;96.20
18024;DHT22;9137;50.960;3.118;2022-07-06T00:16:07;14.60;96.30
18024;DHT22;9137;50.960;3.118;2022-07-06T00:18:34;14.50;96.30
18024;DHT22;9137;50.960;3.118;2022-07-06T00:21:01;14.50;96.50
18024;DHT22;9137;50.960;3.118;2022-07-06T00:23:28;14.40;96.60
18024;DHT22;9137;50.960;3.118;2022-07-06T00:25:55;14.40;96.60
18024;DHT22;9137;50.960;3.118;2022-07-06T00:28:22;14.40;96.70
18024;DHT22;9137;50.960;3.118;2022-07-06T00:30:50;14.30;96.90
18024;DHT22;9137;50.960;3.118;2022-07-06T00:33:17;14.30;97.10
18024;DHT22;9137;50.960;3.118;2022-07-06T00:35:44;14.30;97.10
18024;DHT22;9137;50.960;3.118;2022-07-06T00:38:11;14.20;97.20
18024;DHT22;9137;50.960;3.118;2022-07-06T00:40:38;14.20;97.20
18024;DHT22;9137;50.960;3.118;2022-07-06T00:43:05;14.20;97.30
18024;DHT22;9137;50.960;3.118;2022-07-06T00:45:31;14.10;97.40
18024;DHT22;9137;50.960;3.118;2022-07-06T00:48:00;14.10;97.40
18024;DHT22;9137;50.960;3.118;2022-07-06T00:50:27;14.00;97.40
18024;DHT22;9137;50.960;3.118;2022-07-06T00:52:55;14.00;97.60
18024;DHT22;9137;50.960;3.118;2022-07-06T00:55:24;14.00;97.70
18024;DHT22;9137;50.960;3.118;2022-07-06T00:57:52;14.10;97.70
18024;DHT22;9137;50.960;3.118;2022-07-06T01:00:21;14.00;97.90
18024;DHT22;9137;50.960;3.118;2022-07-06T01:02:48;14.00;97.80
18024;DHT22;9137;50.960;3.118;2022-07-06T01:05:18;14.00;97.90
18024;DHT22;9137;50.960;3.118;2022-07-06T01:07:46;14.00;97.90
18024;DHT22;9137;50.960;3.118;2022-07-06T01:10:15;14.00;97.90
18024;DHT22;9137;50.960;3.118;2022-07-06T01:12:44;14.00;98.20
18024;DHT22;9137;50.960;3.118;2022-07-06T01:15:13;14.00;98.30
18024;DHT22;9137;50.960;3.118;2022-07-06T01:17:40;14.00;98.40
18024;DHT22;9137;50.960;3.118;2022-07-06T01:20:11;14.10;98.40
18024;DHT22;9137;50.960;3.118;2022-07-06T01:22:38;14.10;98.40
18024;DHT22;9137;50.960;3.118;2022-07-06T01:25:06;14.10;98.20
18024;DHT22;9137;50.960;3.118;2022-07-06T01:27:34;14.00;98.10
18024;DHT22;9137;50.960;3.118;2022-07-06T01:30:04;14.00;98.10
18024;DHT22;9137;50.960;3.118;2022-07-06T01:32:31;14.00;98.20
18024;DHT22;9137;50.960;3.118;2022-07-06T01:34:59;14.00;98.20
18024;DHT22;9137;50.960;3.118;2022-07-06T01:37:28;14.00;98.30
18024;DHT22;9137;50.960;3.118;2022-07-06T01:39:58;14.00;98.30
18024;DHT22;9137;50.960;3.118;2022-07-06T01:42:25;14.00;98.40
18024;DHT22;9137;50.960;3.118;2022-07-06T01:44:52;14.00;98.30
18024;DHT22;9137;50.960;3.118;2022-07-06T01:47:19;14.00;98.30
18024;DHT22;9137;50.960;3.118;2022-07-06T01:49:46;14.00;98.40
18024;DHT22;9137;50.960;3.118;2022-07-06T01:52:13;14.00;98.50
18024;DHT22;9137;50.960;3.118;2022-07-06T01:54:41;13.90;98.50
18024;DHT22;9137;50.960;3.118;2022-07-06T01:57:08;13.90;98.50
18024;DHT22;9137;50.960;3.118;2022-07-06T01:59:36;13.90;98.40
18024;DHT22;9137;50.960;3.118;2022-07-06T02:02:03;13.80;98.70
18024;DHT22;9137;50.960;3.118;2022-07-06T02:04:30;13.80;98.50
18024;DHT22;9137;50.960;3.118;2022-07-06T02:06:57;13.80;98.50
18024;DHT22;9137;50.960;3.118;2022-07-06T02:09:24;13.80;98.50
18024;DHT22;9137;50.960;3.118;2022-07-06T02:11:52;13.70;98.60
18024;DHT22;9137;50.960;3.118;2022-07-06T02:14:19;13.70;98.80
18024;DHT22;9137;50.960;3.118;2022-07-06T02:16:46;13.70;98.80
18024;DHT22;9137;50.960;3.118;2022-07-06T02:19:13;13.70;98.80
18024;DHT22;9137;50.960;3.118;2022-07-06T02:21:40;13.70;98.80
18024;DHT22;9137;50.960;3.118;2022-07-06T02:24:07;13.70;98.80
18024;DHT22;9137;50.960;3.118;2022-07-06T02:26:34;13.60;98.70
18024;DHT22;9137;50.960;3.118;2022-07-06T02:29:02;13.60;98.80
18024;DHT22;9137;50.960;3.118;2022-07-06T02:31:29;13.50;98.80
18024;DHT22;9137;50.960;3.118;2022-07-06T02:33:56;13.50;98.90
18024;DHT22;9137;50.960;3.118;2022-07-06T02:36:23;13.50;99.00
18024;DHT22;9137;50.960;3.118;2022-07-06T02:38:50;13.50;99.20
18024;DHT22;9137;50.960;3.118;2022-07-06T02:41:17;13.40;99.10
18024;DHT22;9137;50.960;3.118;2022-07-06T02:43:44;13.40;99.20
18024;DHT22;9137;50.960;3.118;2022-07-06T02:46:13;13.40;99.30
18024;DHT22;9137;50.960;3.118;2022-07-06T02:48:40;13.30;99.30
18024;DHT22;9137;50.960;3.118;2022-07-06T02:51:07;13.40;99.20
18024;DHT22;9137;50.960;3.118;2022-07-06T02:53:34;13.40;99.40
18024;DHT22;9137;50.960;3.118;2022-07-06T02:56:01;13.30;99.40
18024;DHT22;9137;50.960;3.118;2022-07-06T02:58:28;13.30;99.40
18024;DHT22;9137;50.960;3.118;2022-07-06T03:00:55;13.30;99.50
18024;DHT22;9137;50.960;3.118;2022-07-06T03:03:23;13.30;99.70
18024;DHT22;9137;50.960;3.118;2022-07-06T03:05:50;13.20;99.60
18024;DHT22;9137;50.960;3.118;2022-07-06T03:08:17;13.20;99.70
18024;DHT22;9137;50.960;3.118;2022-07-06T03:10:45;13.20;99.60
18024;DHT22;9137;50.960;3.118;2022-07-06T03:13:12;13.20;99.60
18024;DHT22;9137;50.960;3.118;2022-07-06T03:15:39;13.20;99.60
18024;DHT22;9137;50.960;3.118;2022-07-06T03:18:06;13.10;99.60
18024;DHT22;9137;50.960;3.118;2022-07-06T03:20:34;13.10;99.60
18024;DHT22;9137;50.960;3.118;2022-07-06T03:23:01;13.10;99.70
18024;DHT22;9137;50.960;3.118;2022-07-06T03:25:28;13.10;99.70
18024;DHT22;9137;50.960;3.118;2022-07-06T03:27:55;13.10;99.70
18024;DHT22;9137;50.960;3.118;2022-07-06T03:30:22;13.10;99.70
18024;DHT22;9137;50.960;3.118;2022-07-06T03:32:49;13.10;99.60
18024;DHT22;9137;50.960;3.118;2022-07-06T03:35:16;13.10;99.70
18024;DHT22;9137;50.960;3.118;2022-07-06T03:37:44;13.10;99.70
18024;DHT22;9137;50.960;3.118;2022-07-06T03:40:12;13.10;99.90
18024;DHT22;9137;50.960;3.118;2022-07-06T03:42:39;13.10;99.90
18024;DHT22;9137;50.960;3.118;2022-07-06T03:45:07;13.10;99.90
18024;DHT22;9137;50.960;3.118;2022-07-06T03:47:35;13.20;99.90
18024;DHT22;9137;50.960;3.118;2022-07-06T03:50:02;13.20;99.90
18024;DHT22;9137;50.960;3.118;2022-07-06T03:52:29;13.10;99.90
18024;DHT22;9137;50.960;3.118;2022-07-06T03:54:58;13.20;99.90
18024;DHT22;9137;50.960;3.118;2022-07-06T03:57:25;13.20;99.90
18024;DHT22;9137;50.960;3.118;2022-07-06T03:59:52;13.20;99.90
18024;DHT22;9137;50.960;3.118;2022-07-06T04:02:19;13.20;99.90
18024;DHT22;9137;50.960;3.118;2022-07-06T04:04:46;13.20;99.90
18024;DHT22;9137;50.960;3.118;2022-07-06T04:07:13;13.20;99.90
18024;DHT22;9137;50.960;3.118;2022-07-06T04:09:40;13.30;99.90
18024;DHT22;9137;50.960;3.118;2022-07-06T04:12:09;13.30;99.90
18024;DHT22;9137;50.960;3.118;2022-07-06T04:14:39;13.30;99.80
18024;DHT22;9137;50.960;3.118;2022-07-06T04:17:06;13.40;99.80
18024;DHT22;9137;50.960;3.118;2022-07-06T04:19:47;13.40;99.80
18024;DHT22;9137;50.960;3.118;2022-07-06T04:22:14;13.40;99.80
18024;DHT22;9137;50.960;3.118;2022-07-06T04:24:41;13.50;99.60
18024;DHT22;9137;50.960;3.118;2022-07-06T04:27:09;13.50;99.50
18024;DHT22;9137;50.960;3.118;2022-07-06T04:29:36;13.60;99.40
18024;DHT22;9137;50.960;3.118;2022-07-06T04:32:04;13.70;99.20
18024;DHT22;9137;50.960;3.118;2022-07-06T04:34:31;13.70;99.10
18024;DHT22;9137;50.960;3.118;2022-07-06T04:36:58;13.80;99.20
18024;DHT22;9137;50.960;3.118;2022-07-06T04:39:25;13.80;99.00
18024;DHT22;9137;50.960;3.118;2022-07-06T04:41:53;14.00;98.90
18024;DHT22;9137;50.960;3.118;2022-07-06T04:44:21;14.00;98.60
18024;DHT22;9137;50.960;3.118;2022-07-06T04:46:48;14.10;98.50
18024;DHT22;9137;50.960;3.118;2022-07-06T04:49:16;14.20;98.40
18024;DHT22;9137;50.960;3.118;2022-07-06T04:51:43;14.20;98.20
18024;DHT22;9137;50.960;3.118;2022-07-06T04:54:10;14.30;98.30
18024;DHT22;9137;50.960;3.118;2022-07-06T04:56:37;14.40;98.40
18024;DHT22;9137;50.960;3.118;2022-07-06T04:59:07;14.50;98.20
18024;DHT22;9137;50.960;3.118;2022-07-06T05:01:35;14.60;98.10
18024;DHT22;9137;50.960;3.118;2022-07-06T05:04:02;14.60;97.80
18024;DHT22;9137;50.960;3.118;2022-07-06T05:06:30;14.60;97.50
18024;DHT22;9137;50.960;3.118;2022-07-06T05:08:57;14.70;97.40
18024;DHT22;9137;50.960;3.118;2022-07-06T05:11:25;14.80;96.90
18024;DHT22;9137;50.960;3.118;2022-07-06T05:13:52;14.90;97.00
18024;DHT22;9137;50.960;3.118;2022-07-06T05:16:20;14.90;97.10
18024;DHT22;9137;50.960;3.118;2022-07-06T05:18:48;15.00;96.80
18024;DHT22;9137;50.960;3.118;2022-07-06T05:21:15;15.10;96.70
18024;DHT22;9137;50.960;3.118;2022-07-06T05:23:44;15.00;96.20
18024;DHT22;9137;50.960;3.118;2022-07-06T05:26:12;15.10;96.20
18024;DHT22;9137;50.960;3.118;2022-07-06T05:28:39;15.20;96.30
18024;DHT22;9137;50.960;3.118;2022-07-06T05:31:06;15.40;96.30
18024;DHT22;9137;50.960;3.118;2022-07-06T05:33:33;15.50;95.20
18024;DHT22;9137;50.960;3.118;2022-07-06T05:36:01;15.50;95.40
18024;DHT22;9137;50.960;3.118;2022-07-06T05:38:28;15.60;95.30
18024;DHT22;9137;50.960;3.118;2022-07-06T05:40:55;15.80;95.20
18024;DHT22;9137;50.960;3.118;2022-07-06T05:43:22;15.90;94.80
18024;DHT22;9137;50.960;3.118;2022-07-06T05:45:50;16.00;94.30
18024;DHT22;9137;50.960;3.118;2022-07-06T05:48:17;16.10;94.30
18024;DHT22;9137;50.960;3.118;2022-07-06T05:51:03;16.00;94.00
18024;DHT22;9137;50.960;3.118;2022-07-06T05:53:30;16.20;94.40
18024;DHT22;9137;50.960;3.118;2022-07-06T05:55:59;16.20;94.00
18024;DHT22;9137;50.960;3.118;2022-07-06T05:58:26;16.30;94.00
18024;DHT22;9137;50.960;3.118;2022-07-06T06:00:55;16.30;94.00
18024;DHT22;9137;50.960;3.118;2022-07-06T06:03:23;16.40;94.00
18024;DHT22;9137;50.960;3.118;2022-07-06T06:05:50;16.50;92.90
18024;DHT22;9137;50.960;3.118;2022-07-06T06:08:19;16.50;91.60
18024;DHT22;9137;50.960;3.118;2022-07-06T06:10:46;16.60;92.30
18024;DHT22;9137;50.960;3.118;2022-07-06T06:13:13;16.60;91.90
18024;DHT22;9137;50.960;3.118;2022-07-06T06:15:40;16.60;91.90
18024;DHT22;9137;50.960;3.118;2022-07-06T06:18:07;16.60;92.30
18024;DHT22;9137;50.960;3.118;2022-07-06T06:20:34;16.50;92.50
18024;DHT22;9137;50.960;3.118;2022-07-06T06:23:01;16.60;92.70
18024;DHT22;9137;50.960;3.118;2022-07-06T06:25:33;16.60;91.60
18024;DHT22;9137;50.960;3.118;2022-07-06T06:28:00;16.60;92.00
18024;DHT22;9137;50.960;3.118;2022-07-06T06:30:27;16.50;91.40
18024;DHT22;9137;50.960;3.118;2022-07-06T06:33:08;16.50;91.40
18024;DHT22;9137;50.960;3.118;2022-07-06T06:35:36;16.70;91.50
18024;DHT22;9137;50.960;3.118;2022-07-06T06:38:04;16.80;91.10
18024;DHT22;9137;50.960;3.118;2022-07-06T06:40:32;16.80;91.30
18024;DHT22;9137;50.960;3.118;2022-07-06T06:42:59;16.70;91.80
18024;DHT22;9137;50.960;3.118;2022-07-06T06:45:26;16.80;91.30
18024;DHT22;9137;50.960;3.118;2022-07-06T06:47:53;16.70;92.00
18024;DHT22;9137;50.960;3.118;2022-07-06T06:50:21;16.70;92.80
18024;DHT22;9137;50.960;3.118;2022-07-06T06:52:51;16.70;92.80
18024;DHT22;9137;50.960;3.118;2022-07-06T06:55:18;16.80;92.70
18024;DHT22;9137;50.960;3.118;2022-07-06T06:57:47;16.90;91.90
18024;DHT22;9137;50.960;3.118;2022-07-06T07:00:15;16.90;91.80
18024;DHT22;9137;50.960;3.118;2022-07-06T07:02:42;17.00;92.30
18024;DHT22;9137;50.960;3.118;2022-07-06T07:05:09;16.90;92.30
18024;DHT22;9137;50.960;3.118;2022-07-06T07:07:36;16.90;92.20
18024;DHT22;9137;50.960;3.118;2022-07-06T07:10:04;17.00;92.60
18024;DHT22;9137;50.960;3.118;2022-07-06T07:12:31;17.10;92.20
18024;DHT22;9137;50.960;3.118;2022-07-06T07:15:00;17.10;91.40
18024;DHT22;9137;50.960;3.118;2022-07-06T07:17:27;17.10;91.40
18024;DHT22;9137;50.960;3.118;2022-07-06T07:19:54;17.20;91.40
18024;DHT22;9137;50.960;3.118;2022-07-06T07:22:23;17.30;91.90
18024;DHT22;9137;50.960;3.118;2022-07-06T07:24:50;17.40;92.00
18024;DHT22;9137;50.960;3.118;2022-07-06T07:27:17;17.50;92.00
18024;DHT22;9137;50.960;3.118;2022-07-06T07:29:44;17.50;91.40
18024;DHT22;9137;50.960;3.118;2022-07-06T07:32:12;17.60;92.50
18024;DHT22;9137;50.960;3.118;2022-07-06T07:34:39;17.80;93.10
18024;DHT22;9137;50.960;3.118;2022-07-06T07:37:06;17.90;93.40
18024;DHT22;9137;50.960;3.118;2022-07-06T07:39:33;18.10;94.00
18024;DHT22;9137;50.960;3.118;2022-07-06T07:42:00;18.10;93.80
18024;DHT22;9137;50.960;3.118;2022-07-06T07:44:27;18.10;91.80
18024;DHT22;9137;50.960;3.118;2022-07-06T07:46:54;18.20;91.20
18024;DHT22;9137;50.960;3.118;2022-07-06T07:49:22;18.40;91.00
18024;DHT22;9137;50.960;3.118;2022-07-06T07:51:49;18.50;91.80
18024;DHT22;9137;50.960;3.118;2022-07-06T07:54:16;18.70;92.10
18024;DHT22;9137;50.960;3.118;2022-07-06T07:56:43;18.90;91.40
18024;DHT22;9137;50.960;3.118;2022-07-06T07:59:10;19.10;90.70
18024;DHT22;9137;50.960;3.118;2022-07-06T08:01:38;19.20;91.00
18024;DHT22;9137;50.960;3.118;2022-07-06T08:04:04;19.30;91.40
18024;DHT22;9137;50.960;3.118;2022-07-06T08:06:33;19.40;91.30
18024;DHT22;9137;50.960;3.118;2022-07-06T08:09:00;19.50;91.40
18024;DHT22;9137;50.960;3.118;2022-07-06T08:11:28;19.70;92.00
18024;DHT22;9137;50.960;3.118;2022-07-06T08:13:55;20.00;91.40
18024;DHT22;9137;50.960;3.118;2022-07-06T08:16:22;20.30;89.70
18024;DHT22;9137;50.960;3.118;2022-07-06T08:18:49;20.50;85.50
18024;DHT22;9137;50.960;3.118;2022-07-06T08:21:16;20.40;85.30
18024;DHT22;9137;50.960;3.118;2022-07-06T08:23:45;20.40;87.00
18024;DHT22;9137;50.960;3.118;2022-07-06T08:26:12;20.50;90.00
18024;DHT22;9137;50.960;3.118;2022-07-06T08:28:39;20.70;87.10
18024;DHT22;9137;50.960;3.118;2022-07-06T08:31:06;20.90;86.40
18024;DHT22;9137;50.960;3.118;2022-07-06T08:33:33;21.00;84.40
18024;DHT22;9137;50.960;3.118;2022-07-06T08:36:00;21.10;85.10
18024;DHT22;9137;50.960;3.118;2022-07-06T08:38:27;21.30;85.30
18024;DHT22;9137;50.960;3.118;2022-07-06T08:40:56;21.30;84.30
18024;DHT22;9137;50.960;3.118;2022-07-06T08:43:24;21.30;82.30
18024;DHT22;9137;50.960;3.118;2022-07-06T08:45:53;21.20;81.90
18024;DHT22;9137;50.960;3.118;2022-07-06T08:48:23;21.10;83.70
18024;DHT22;9137;50.960;3.118;2022-07-06T08:50:51;21.10;86.90
18024;DHT22;9137;50.960;3.118;2022-07-06T08:53:18;21.50;87.90
18024;DHT22;9137;50.960;3.118;2022-07-06T08:55:46;21.80;87.50
18024;DHT22;9137;50.960;3.118;2022-07-06T08:58:15;22.20;80.70
18024;DHT22;9137;50.960;3.118;2022-07-06T09:00:42;22.40;78.10
18024;DHT22;9137;50.960;3.118;2022-07-06T09:03:11;22.50;74.90
18024;DHT22;9137;50.960;3.118;2022-07-06T09:05:39;22.40;74.70
18024;DHT22;9137;50.960;3.118;2022-07-06T09:08:06;22.20;76.50
18024;DHT22;9137;50.960;3.118;2022-07-06T09:10:33;22.00;79.80
18024;DHT22;9137;50.960;3.118;2022-07-06T09:13:04;21.90;77.00
18024;DHT22;9137;50.960;3.118;2022-07-06T09:15:33;21.90;75.20
18024;DHT22;9137;50.960;3.118;2022-07-06T09:18:01;22.10;75.10
18024;DHT22;9137;50.960;3.118;2022-07-06T09:20:28;22.00;77.10
18024;DHT22;9137;50.960;3.118;2022-07-06T09:22:58;21.90;75.00
18024;DHT22;9137;50.960;3.118;2022-07-06T09:25:26;22.00;78.20
18024;DHT22;9137;50.960;3.118;2022-07-06T09:27:55;22.10;75.40
18024;DHT22;9137;50.960;3.118;2022-07-06T09:30:24;22.20;74.90
18024;DHT22;9137;50.960;3.118;2022-07-06T09:32:54;22.30;76.50
18024;DHT22;9137;50.960;3.118;2022-07-06T09:35:23;22.50;75.00
18024;DHT22;9137;50.960;3.118;2022-07-06T09:38:03;22.40;76.20
18024;DHT22;9137;50.960;3.118;2022-07-06T09:40:33;22.50;72.10
18024;DHT22;9137;50.960;3.118;2022-07-06T09:43:11;22.30;76.30
18024;DHT22;9137;50.960;3.118;2022-07-06T09:45:39;22.40;74.60
18024;DHT22;9137;50.960;3.118;2022-07-06T09:48:09;22.50;76.40
18024;DHT22;9137;50.960;3.118;2022-07-06T09:50:44;22.60;75.60
18024;DHT22;9137;50.960;3.118;2022-07-06T09:53:12;22.80;74.50
18024;DHT22;9137;50.960;3.118;2022-07-06T09:55:43;22.90;71.40
18024;DHT22;9137;50.960;3.118;2022-07-06T09:58:10;23.20;75.90
18024;DHT22;9137;50.960;3.118;2022-07-06T10:00:37;23.60;69.20
18024;DHT22;9137;50.960;3.118;2022-07-06T10:03:04;23.60;67.70
18024;DHT22;9137;50.960;3.118;2022-07-06T10:05:35;23.50;67.40
18024;DHT22;9137;50.960;3.118;2022-07-06T10:08:03;23.70;70.10
18024;DHT22;9137;50.960;3.118;2022-07-06T10:10:32;23.60;65.70
18024;DHT22;9137;50.960;3.118;2022-07-06T10:12:59;23.50;66.70
18024;DHT22;9137;50.960;3.118;2022-07-06T10:15:28;23.50;66.50
18024;DHT22;9137;50.960;3.118;2022-07-06T10:17:58;23.70;69.50
18024;DHT22;9137;50.960;3.118;2022-07-06T10:20:28;24.10;63.40
18024;DHT22;9137;50.960;3.118;2022-07-06T10:22:59;24.40;63.50
18024;DHT22;9137;50.960;3.118;2022-07-06T10:25:26;24.70;63.90
18024;DHT22;9137;50.960;3.118;2022-07-06T10:27:54;25.00;62.30
18024;DHT22;9137;50.960;3.118;2022-07-06T10:30:22;25.20;65.80
18024;DHT22;9137;50.960;3.118;2022-07-06T10:32:50;25.60;62.50
18024;DHT22;9137;50.960;3.118;2022-07-06T10:35:18;25.70;60.80
18024;DHT22;9137;50.960;3.118;2022-07-06T10:37:46;25.90;55.80
18024;DHT22;9137;50.960;3.118;2022-07-06T10:40:33;25.80;57.20
18024;DHT22;9137;50.960;3.118;2022-07-06T10:43:18;25.80;54.10
18024;DHT22;9137;50.960;3.118;2022-07-06T10:45:51;25.50;53.50
18024;DHT22;9137;50.960;3.118;2022-07-06T10:48:20;25.40;57.40
18024;DHT22;9137;50.960;3.118;2022-07-06T10:50:50;25.50;57.40
18024;DHT22;9137;50.960;3.118;2022-07-06T10:53:21;25.80;57.40
18024;DHT22;9137;50.960;3.118;2022-07-06T10:55:51;25.90;55.80
18024;DHT22;9137;50.960;3.118;2022-07-06T10:58:39;25.60;53.70
18024;DHT22;9137;50.960;3.118;2022-07-06T11:01:07;25.20;56.10
18024;DHT22;9137;50.960;3.118;2022-07-06T11:03:38;25.00;55.60
18024;DHT22;9137;50.960;3.118;2022-07-06T11:06:08;24.80;54.30
18024;DHT22;9137;50.960;3.118;2022-07-06T11:08:56;24.70;54.30
18024;DHT22;9137;50.960;3.118;2022-07-06T11:11:26;24.80;56.80
18024;DHT22;9137;50.960;3.118;2022-07-06T11:14:07;25.00;55.80
18024;DHT22;9137;50.960;3.118;2022-07-06T11:16:37;25.40;55.80
18024;DHT22;9137;50.960;3.118;2022-07-06T11:19:09;25.90;55.60
18024;DHT22;9137;50.960;3.118;2022-07-06T11:21:39;26.10;53.10
18024;DHT22;9137;50.960;3.118;2022-07-06T11:24:08;25.60;52.50
18024;DHT22;9137;50.960;3.118;2022-07-06T11:26:36;25.00;53.00
18024;DHT22;9137;50.960;3.118;2022-07-06T11:29:04;25.00;57.20
18024;DHT22;9137;50.960;3.118;2022-07-06T11:31:37;25.50;54.30
18024;DHT22;9137;50.960;3.118;2022-07-06T11:34:05;26.20;49.70
18024;DHT22;9137;50.960;3.118;2022-07-06T11:36:32;26.30;50.40
18024;DHT22;9137;50.960;3.118;2022-07-06T11:38:59;26.70;49.00
18024;DHT22;9137;50.960;3.118;2022-07-06T11:41:28;26.90;50.00
18024;DHT22;9137;50.960;3.118;2022-07-06T11:43:56;27.20;50.90
18024;DHT22;9137;50.960;3.118;2022-07-06T11:46:25;27.60;47.90
18024;DHT22;9137;50.960;3.118;2022-07-06T11:48:54;27.70;47.30
18024;DHT22;9137;50.960;3.118;2022-07-06T11:51:23;27.70;47.90
18024;DHT22;9137;50.960;3.118;2022-07-06T11:53:51;27.70;46.80
18024;DHT22;9137;50.960;3.118;2022-07-06T11:56:19;27.40;45.90
18024;DHT22;9137;50.960;3.118;2022-07-06T11:58:49;27.20;45.80
18024;DHT22;9137;50.960;3.118;2022-07-06T12:01:17;27.20;46.90
18024;DHT22;9137;50.960;3.118;2022-07-06T12:03:45;27.20;47.30
18024;DHT22;9137;50.960;3.118;2022-07-06T12:06:17;27.40;45.90
18024;DHT22;9137;50.960;3.118;2022-07-06T12:08:46;27.40;44.20
18024;DHT22;9137;50.960;3.118;2022-07-06T12:11:19;27.50;45.00
18024;DHT22;9137;50.960;3.118;2022-07-06T12:13:47;27.80;46.20
18024;DHT22;9137;50.960;3.118;2022-07-06T12:16:15;28.00;45.80
18024;DHT22;9137;50.960;3.118;2022-07-06T12:18:44;27.90;45.80
18024;DHT22;9137;50.960;3.118;2022-07-06T12:21:15;27.80;47.20
18024;DHT22;9137;50.960;3.118;2022-07-06T12:23:44;27.80;47.80
18024;DHT22;9137;50.960;3.118;2022-07-06T12:26:12;28.00;46.20
18024;DHT22;9137;50.960;3.118;2022-07-06T12:28:40;27.60;47.00
18024;DHT22;9137;50.960;3.118;2022-07-06T12:31:07;27.80;46.30
18024;DHT22;9137;50.960;3.118;2022-07-06T12:33:34;27.70;46.40
18024;DHT22;9137;50.960;3.118;2022-07-06T12:36:14;27.70;47.10
18024;DHT22;9137;50.960;3.118;2022-07-06T12:38:46;27.80;47.30
18024;DHT22;9137;50.960;3.118;2022-07-06T12:41:30;28.10;46.30
18024;DHT22;9137;50.960;3.118;2022-07-06T12:44:03;28.10;45.70
18024;DHT22;9137;50.960;3.118;2022-07-06T12:46:33;27.80;46.10
18024;DHT22;9137;50.960;3.118;2022-07-06T12:49:01;27.60;44.80
18024;DHT22;9137;50.960;3.118;2022-07-06T12:51:55;27.80;47.10
18024;DHT22;9137;50.960;3.118;2022-07-06T12:54:23;28.00;45.00
18024;DHT22;9137;50.960;3.118;2022-07-06T12:57:10;27.90;45.10
18024;DHT22;9137;50.960;3.118;2022-07-06T12:59:41;27.90;46.20
18024;DHT22;9137;50.960;3.118;2022-07-06T13:02:16;27.80;47.30
18024;DHT22;9137;50.960;3.118;2022-07-06T13:04:43;28.00;47.00
18024;DHT22;9137;50.960;3.118;2022-07-06T13:07:19;28.10;47.90
18024;DHT22;9137;50.960;3.118;2022-07-06T13:09:46;28.00;47.30
18024;DHT22;9137;50.960;3.118;2022-07-06T13:12:13;27.70;48.20
18024;DHT22;9137;50.960;3.118;2022-07-06T13:14:40;27.20;48.80
18024;DHT22;9137;50.960;3.118;2022-07-06T13:17:07;27.00;50.50
18024;DHT22;9137;50.960;3.118;2022-07-06T13:19:34;27.20;51.20
18024;DHT22;9137;50.960;3.118;2022-07-06T13:22:01;27.30;49.70
18024;DHT22;9137;50.960;3.118;2022-07-06T13:24:29;27.50;49.00
18024;DHT22;9137;50.960;3.118;2022-07-06T13:26:56;27.70;49.20
18024;DHT22;9137;50.960;3.118;2022-07-06T13:29:23;27.70;48.20
18024;DHT22;9137;50.960;3.118;2022-07-06T13:31:50;27.90;48.10
18024;DHT22;9137;50.960;3.118;2022-07-06T13:34:17;27.90;47.90
18024;DHT22;9137;50.960;3.118;2022-07-06T13:36:44;28.10;46.30
18024;DHT22;9137;50.960;3.118;2022-07-06T13:39:11;28.10;43.80
18024;DHT22;9137;50.960;3.118;2022-07-06T13:41:40;28.10;44.40
18024;DHT22;9137;50.960;3.118;2022-07-06T13:44:06;28.00;45.20
18024;DHT22;9137;50.960;3.118;2022-07-06T13:46:35;28.10;43.00
18024;DHT22;9137;50.960;3.118;2022-07-06T13:49:03;28.10;43.40
18024;DHT22;9137;50.960;3.118;2022-07-06T13:51:30;27.60;42.10
18024;DHT22;9137;50.960;3.118;2022-07-06T13:53:58;27.20;43.40
18024;DHT22;9137;50.960;3.118;2022-07-06T13:56:25;27.00;43.80
18024;DHT22;9137;50.960;3.118;2022-07-06T13:58:53;27.00;42.90
18024;DHT22;9137;50.960;3.118;2022-07-06T14:01:21;26.80;44.80
18024;DHT22;9137;50.960;3.118;2022-07-06T14:03:48;26.60;43.20
18024;DHT22;9137;50.960;3.118;2022-07-06T14:06:15;26.60;44.30
18024;DHT22;9137;50.960;3.118;2022-07-06T14:08:43;26.70;43.90
18024;DHT22;9137;50.960;3.118;2022-07-06T14:11:10;26.70;44.30
18024;DHT22;9137;50.960;3.118;2022-07-06T14:13:38;26.60;45.30
18024;DHT22;9137;50.960;3.118;2022-07-06T14:16:06;26.40;44.90
18024;DHT22;9137;50.960;3.118;2022-07-06T14:18:34;26.30;45.20
18024;DHT22;9137;50.960;3.118;2022-07-06T14:21:01;26.30;45.30
18024;DHT22;9137;50.960;3.118;2022-07-06T14:23:29;26.40;44.90
18024;DHT22;9137;50.960;3.118;2022-07-06T14:25:56;26.40;45.50
18024;DHT22;9137;50.960;3.118;2022-07-06T14:28:24;26.60;43.60
18024;DHT22;9137;50.960;3.118;2022-07-06T14:30:51;26.60;42.30
18024;DHT22;9137;50.960;3.118;2022-07-06T14:33:20;26.60;39.80
18024;DHT22;9137;50.960;3.118;2022-07-06T14:35:48;26.50;41.20
18024;DHT22;9137;50.960;3.118;2022-07-06T14:38:18;26.50;42.50
18024;DHT22;9137;50.960;3.118;2022-07-06T14:40:45;26.40;44.70
18024;DHT22;9137;50.960;3.118;2022-07-06T14:43:13;26.30;45.90
18024;DHT22;9137;50.960;3.118;2022-07-06T14:45:40;26.30;47.60
18024;DHT22;9137;50.960;3.118;2022-07-06T14:48:09;26.20;49.10
18024;DHT22;9137;50.960;3.118;2022-07-06T14:50:37;26.20;49.00
18024;DHT22;9137;50.960;3.118;2022-07-06T14:53:04;26.30;49.70
18024;DHT22;9137;50.960;3.118;2022-07-06T14:55:31;26.20;50.60
18024;DHT22;9137;50.960;3.118;2022-07-06T14:57:58;26.20;50.90
18024;DHT22;9137;50.960;3.118;2022-07-06T15:00:25;26.30;51.80
18024;DHT22;9137;50.960;3.118;2022-07-06T15:02:52;26.40;52.40
18024;DHT22;9137;50.960;3.118;2022-07-06T15:05:19;26.50;52.60
18024;DHT22;9137;50.960;3.118;2022-07-06T15:07:47;26.60;52.90
18024;DHT22;9137;50.960;3.118;2022-07-06T15:10:14;26.80;52.70
18024;DHT22;9137;50.960;3.118;2022-07-06T15:12:41;26.90;53.30
18024;DHT22;9137;50.960;3.118;2022-07-06T15:15:09;26.90;51.90
18024;DHT22;9137;50.960;3.118;2022-07-06T15:17:36;26.80;52.00
18024;DHT22;9137;50.960;3.118;2022-07-06T15:20:03;26.80;52.40
18024;DHT22;9137;50.960;3.118;2022-07-06T15:22:30;27.00;52.70
18024;DHT22;9137;50.960;3.118;2022-07-06T15:25:00;27.20;52.70
18024;DHT22;9137;50.960;3.118;2022-07-06T15:27:27;27.20;52.20
18024;DHT22;9137;50.960;3.118;2022-07-06T15:29:55;27.00;52.70
18024;DHT22;9137;50.960;3.118;2022-07-06T15:32:22;26.70;53.70
18024;DHT22;9137;50.960;3.118;2022-07-06T15:34:49;26.80;53.70
18024;DHT22;9137;50.960;3.118;2022-07-06T15:37:16;26.70;53.60
18024;DHT22;9137;50.960;3.118;2022-07-06T15:39:43;26.50;54.90
18024;DHT22;9137;50.960;3.118;2022-07-06T15:42:11;26.30;54.40
18024;DHT22;9137;50.960;3.118;2022-07-06T15:44:38;26.20;55.70
18024;DHT22;9137;50.960;3.118;2022-07-06T15:47:06;26.00;56.50
18024;DHT22;9137;50.960;3.118;2022-07-06T15:49:33;26.00;56.00
18024;DHT22;9137;50.960;3.118;2022-07-06T15:52:00;26.10;55.90